METAR Analyzer

一覧表示

Hello, Guest. (Login)

ROAH/OKA  -  那覇

観測日時
2021-01-26 23:00 (UTC) (35分前)
気温
18
露点
15
湿数
3
相対湿度
82.6%
QNH
1018hPa
推定現地気圧
1017.6hPa
推定海面気圧
1018.0hPa
体感温度
8.2
(無風時)
19.3
HI
18
気温前日比
±0
体感温度前日比
-5.6
HI前日比
-0.1
水平視程
>10000m
鉛直視程
データなし
雲底高度
4000ft AGL
V/I
VMC (VFR)
RVR
No RVR data
卓越風
16kt from 350°
ガスト
No gust
降水
弱いしゅう雨性の雨
その他の天気
報告なし
少しの雲 @ 1800ft AGL / 隙間のある雲 @ 4000ft AGL

ROAH 262300Z 35016KT 9999 -SHRA FEW018 BKN040 18/15 Q1018

RORK/KTD  -  北大東

観測日時
2021-01-26 23:00 (UTC) (35分前)
気温
20
露点
15
湿数
5
相対湿度
72.9%
QNH
1015hPa
推定現地気圧
1012.4hPa
推定海面気圧
1015.0hPa
体感温度
11.7
(無風時)
20.6
HI
20
気温前日比
+1
体感温度前日比
+1.7
HI前日比
+0.7
水平視程
>10000m
鉛直視程
データなし
雲底高度
No dense clouds
V/I
VMC (VFR)
RVR
No RVR data
卓越風
12kt from 340°
ガスト
No gust
降水
報告なし
その他の天気
報告なし
散在する雲 @ 2400ft AGL

RORK 262300Z AUTO 34012KT 9999 SCT024 20/15 Q1015

ROMD/MMD  -  南大東

観測日時
2021-01-26 23:00 (UTC) (35分前)
気温
20
露点
16
湿数
4
相対湿度
77.8%
QNH
1016hPa
推定現地気圧
1010.2hPa
推定海面気圧
1015.9hPa
体感温度
12.5
(無風時)
20.8
HI
20.1
気温前日比
+1.5
体感温度前日比
+2.2
HI前日比
+1.3
水平視程
>10000m
鉛直視程
データなし
雲底高度
2600ft AGL
V/I
VMC (VFR)
RVR
No RVR data
卓越風
9kt from 340°
ガスト
No gust
降水
報告なし
その他の天気
報告なし
散在する雲 @ 2200ft AGL / 隙間のある雲 @ 2600ft AGL / 隙間のある雲 @ 2900ft AGL

ROMD 262300Z AUTO 34009KT 9999 SCT022 BKN026 BKN029 20/16 Q1016

ROMY/MMY  -  宮古

観測日時
2021-01-26 23:00 (UTC) (35分前)
気温
19
露点
15
湿数
4
相対湿度
77.6%
QNH
1018hPa
推定現地気圧
1012.8hPa
推定海面気圧
1017.9hPa
体感温度
11.6
(無風時)
20
HI
19
気温前日比
+1
体感温度前日比
-2.8
HI前日比
+1
水平視程
>10000m
鉛直視程
データなし
雲底高度
4500ft AGL
V/I
VMC (VFR)
RVR
No RVR data
卓越風
8kt from 10°
ガスト
No gust
降水
報告なし
その他の天気
報告なし
少しの雲 @ 2400ft AGL / 隙間のある雲 @ 4500ft AGL

ROMY 262300Z 01008KT 9999 FEW024 BKN045 19/15 Q1018

RORS/SHI  -  下地島

観測日時
2021-01-26 23:00 (UTC) (35分前)
気温
20
露点
15
湿数
5
相対湿度
72.9%
QNH
1018hPa
推定現地気圧
1017.0hPa
推定海面気圧
1017.9hPa
体感温度
10.8
(無風時)
20.6
HI
20
気温前日比
+1
体感温度前日比
-1.6
HI前日比
+1
水平視程
>10000m
鉛直視程
データなし
雲底高度
4500ft AGL
V/I
VMC (VFR)
RVR
No RVR data
卓越風
17kt from 20°
ガスト
No gust
降水
報告なし
その他の天気
報告なし
散在する雲 @ 2300ft AGL / 隙間のある雲 @ 4500ft AGL

RORS 262300Z 02017KT 9999 SCT023 BKN045 20/15 Q1018

ROIG/ISG  -  石垣

観測日時
2021-01-26 23:00 (UTC) (35分前)
気温
19
露点
15
湿数
4
相対湿度
77.6%
QNH
1018hPa
推定現地気圧
1014.3hPa
推定海面気圧
1018.0hPa
体感温度
11.6
(無風時)
20
HI
19
気温前日比
+3
体感温度前日比
+0.5
HI前日比
+3
水平視程
>10000m
鉛直視程
データなし
雲底高度
9000ft AGL
V/I
VMC (VFR)
RVR
No RVR data
卓越風
8kt from 10° (350° ~ 50°)
ガスト
No gust
降水
報告なし
その他の天気
報告なし
少しの雲 @ 2000ft AGL / 散在する雲 @ 3500ft AGL / 隙間のある雲 @ 9000ft AGL

ROIG 262300Z 01008KT 350V050 9999 FEW020 SCT035 BKN090 19/15 Q1018

ROYN/OGN  -  与那国

観測日時
2021-01-26 23:00 (UTC) (35分前)
気温
20
露点
16
湿数
4
相対湿度
77.8%
QNH
1018hPa
推定現地気圧
1016.2hPa
推定海面気圧
1018.0hPa
体感温度
10.1
(無風時)
20.8
HI
20.1
気温前日比
+5
体感温度前日比
-1.1
HI前日比
+5.1
水平視程
>10000m
鉛直視程
データなし
雲底高度
2600ft AGL
V/I
VMC (VFR)
RVR
No RVR data
卓越風
23kt from 30°
ガスト
No gust
降水
報告なし
その他の天気
報告なし
散在する雲 @ 2000ft AGL / 隙間のある雲 @ 2600ft AGL / 隙間のある雲 @ 4300ft AGL

ROYN 262300Z AUTO 03023KT 9999 SCT020 BKN026 BKN043 20/16 Q1018

26msec